sensor_id;sensor_type;location;lat;lon;timestamp;P1;durP1;ratioP1;P2;durP2;ratioP2
49103;SDS011;34915;52.926;11.116;2022-07-25T00:00:22;1.27;;;1.17;;
49103;SDS011;34915;52.926;11.116;2022-07-25T00:02:48;1.70;;;1.33;;
49103;SDS011;34915;52.926;11.116;2022-07-25T00:05:14;1.83;;;1.60;;
49103;SDS011;34915;52.926;11.116;2022-07-25T00:07:40;3.17;;;1.60;;
49103;SDS011;34915;52.926;11.116;2022-07-25T00:10:05;1.57;;;1.40;;
49103;SDS011;34915;52.926;11.116;2022-07-25T00:12:32;1.50;;;1.40;;
49103;SDS011;34915;52.926;11.116;2022-07-25T00:14:57;2.43;;;2.17;;
49103;SDS011;34915;52.926;11.116;2022-07-25T00:17:23;1.73;;;1.63;;
49103;SDS011;34915;52.926;11.116;2022-07-25T00:19:49;1.60;;;1.50;;
49103;SDS011;34915;52.926;11.116;2022-07-25T00:22:15;2.30;;;1.70;;
49103;SDS011;34915;52.926;11.116;2022-07-25T00:24:40;2.83;;;1.57;;
49103;SDS011;34915;52.926;11.116;2022-07-25T00:27:06;1.53;;;1.40;;
49103;SDS011;34915;52.926;11.116;2022-07-25T00:29:32;2.80;;;1.60;;
49103;SDS011;34915;52.926;11.116;2022-07-25T00:31:57;1.20;;;1.10;;
49103;SDS011;34915;52.926;11.116;2022-07-25T00:34:23;1.60;;;1.40;;
49103;SDS011;34915;52.926;11.116;2022-07-25T00:36:48;1.53;;;1.43;;
49103;SDS011;34915;52.926;11.116;2022-07-25T00:39:14;2.93;;;1.53;;
49103;SDS011;34915;52.926;11.116;2022-07-25T00:41:39;1.57;;;1.47;;
49103;SDS011;34915;52.926;11.116;2022-07-25T00:44:05;1.30;;;1.20;;
49103;SDS011;34915;52.926;11.116;2022-07-25T00:46:31;1.53;;;1.43;;
49103;SDS011;34915;52.926;11.116;2022-07-25T00:48:56;1.53;;;1.37;;
49103;SDS011;34915;52.926;11.116;2022-07-25T00:51:22;1.70;;;1.30;;
49103;SDS011;34915;52.926;11.116;2022-07-25T00:53:49;2.00;;;1.80;;
49103;SDS011;34915;52.926;11.116;2022-07-25T00:56:14;1.67;;;1.57;;
49103;SDS011;34915;52.926;11.116;2022-07-25T00:58:41;2.40;;;1.40;;
49103;SDS011;34915;52.926;11.116;2022-07-25T01:01:07;1.67;;;1.47;;
49103;SDS011;34915;52.926;11.116;2022-07-25T01:03:32;3.17;;;1.57;;
49103;SDS011;34915;52.926;11.116;2022-07-25T01:05:58;1.50;;;1.40;;
49103;SDS011;34915;52.926;11.116;2022-07-25T01:08:24;1.63;;;1.53;;
49103;SDS011;34915;52.926;11.116;2022-07-25T01:10:49;1.57;;;1.47;;
49103;SDS011;34915;52.926;11.116;2022-07-25T01:13:15;1.73;;;1.57;;
49103;SDS011;34915;52.926;11.116;2022-07-25T01:15:41;1.43;;;1.27;;
49103;SDS011;34915;52.926;11.116;2022-07-25T01:18:07;1.93;;;1.40;;
49103;SDS011;34915;52.926;11.116;2022-07-25T01:20:35;1.30;;;1.20;;
49103;SDS011;34915;52.926;11.116;2022-07-25T01:23:01;3.20;;;1.57;;
49103;SDS011;34915;52.926;11.116;2022-07-25T01:25:26;1.53;;;1.43;;
49103;SDS011;34915;52.926;11.116;2022-07-25T01:27:54;1.40;;;1.30;;
49103;SDS011;34915;52.926;11.116;2022-07-25T01:30:22;1.27;;;1.17;;
49103;SDS011;34915;52.926;11.116;2022-07-25T01:32:49;2.43;;;1.60;;
49103;SDS011;34915;52.926;11.116;2022-07-25T01:35:14;2.80;;;1.30;;
49103;SDS011;34915;52.926;11.116;2022-07-25T01:37:40;2.23;;;1.47;;
49103;SDS011;34915;52.926;11.116;2022-07-25T01:40:06;6.23;;;1.53;;
49103;SDS011;34915;52.926;11.116;2022-07-25T01:42:33;1.33;;;1.23;;
49103;SDS011;34915;52.926;11.116;2022-07-25T01:44:58;2.13;;;1.50;;
49103;SDS011;34915;52.926;11.116;2022-07-25T01:47:24;3.37;;;1.50;;
49103;SDS011;34915;52.926;11.116;2022-07-25T01:49:50;1.50;;;1.40;;
49103;SDS011;34915;52.926;11.116;2022-07-25T01:52:16;4.40;;;1.27;;
49103;SDS011;34915;52.926;11.116;2022-07-25T01:54:41;1.70;;;1.60;;
49103;SDS011;34915;52.926;11.116;2022-07-25T01:57:07;0.80;;;0.80;;
49103;SDS011;34915;52.926;11.116;2022-07-25T01:59:36;1.77;;;1.03;;
49103;SDS011;34915;52.926;11.116;2022-07-25T02:02:06;1.47;;;1.20;;
49103;SDS011;34915;52.926;11.116;2022-07-25T02:04:32;1.50;;;1.40;;
49103;SDS011;34915;52.926;11.116;2022-07-25T02:06:58;1.20;;;1.10;;
49103;SDS011;34915;52.926;11.116;2022-07-25T02:09:24;1.20;;;1.10;;
49103;SDS011;34915;52.926;11.116;2022-07-25T02:11:50;1.63;;;1.20;;
49103;SDS011;34915;52.926;11.116;2022-07-25T02:14:15;1.07;;;0.97;;
49103;SDS011;34915;52.926;11.116;2022-07-25T02:16:41;1.60;;;1.50;;
49103;SDS011;34915;52.926;11.116;2022-07-25T02:19:07;2.17;;;1.27;;
49103;SDS011;34915;52.926;11.116;2022-07-25T02:21:32;2.03;;;1.50;;
49103;SDS011;34915;52.926;11.116;2022-07-25T02:23:58;1.13;;;1.10;;
49103;SDS011;34915;52.926;11.116;2022-07-25T02:26:24;1.67;;;1.57;;
49103;SDS011;34915;52.926;11.116;2022-07-25T02:28:50;1.87;;;1.40;;
49103;SDS011;34915;52.926;11.116;2022-07-25T02:31:16;1.43;;;1.33;;
49103;SDS011;34915;52.926;11.116;2022-07-25T02:33:41;2.00;;;1.20;;
49103;SDS011;34915;52.926;11.116;2022-07-25T02:36:07;2.07;;;1.37;;
49103;SDS011;34915;52.926;11.116;2022-07-25T02:38:34;1.90;;;1.70;;
49103;SDS011;34915;52.926;11.116;2022-07-25T02:40:59;1.37;;;1.23;;
49103;SDS011;34915;52.926;11.116;2022-07-25T02:43:25;1.33;;;0.90;;
49103;SDS011;34915;52.926;11.116;2022-07-25T02:45:51;1.50;;;1.40;;
49103;SDS011;34915;52.926;11.116;2022-07-25T02:48:16;1.53;;;1.00;;
49103;SDS011;34915;52.926;11.116;2022-07-25T02:50:42;2.03;;;1.10;;
49103;SDS011;34915;52.926;11.116;2022-07-25T02:53:08;1.40;;;1.23;;
49103;SDS011;34915;52.926;11.116;2022-07-25T02:55:33;1.70;;;1.60;;
49103;SDS011;34915;52.926;11.116;2022-07-25T02:57:59;1.90;;;1.23;;
49103;SDS011;34915;52.926;11.116;2022-07-25T03:00:24;1.53;;;1.37;;
49103;SDS011;34915;52.926;11.116;2022-07-25T03:02:50;1.00;;;1.00;;
49103;SDS011;34915;52.926;11.116;2022-07-25T03:05:16;1.97;;;1.37;;
49103;SDS011;34915;52.926;11.116;2022-07-25T03:07:42;1.30;;;1.20;;
49103;SDS011;34915;52.926;11.116;2022-07-25T03:10:09;2.47;;;1.63;;
49103;SDS011;34915;52.926;11.116;2022-07-25T03:12:36;1.13;;;1.10;;
49103;SDS011;34915;52.926;11.116;2022-07-25T03:15:02;1.60;;;1.50;;
49103;SDS011;34915;52.926;11.116;2022-07-25T03:17:30;1.47;;;1.17;;
49103;SDS011;34915;52.926;11.116;2022-07-25T03:19:56;1.20;;;1.10;;
49103;SDS011;34915;52.926;11.116;2022-07-25T03:22:22;1.30;;;1.20;;
49103;SDS011;34915;52.926;11.116;2022-07-25T03:24:51;2.17;;;1.80;;
49103;SDS011;34915;52.926;11.116;2022-07-25T03:27:20;1.50;;;1.10;;
49103;SDS011;34915;52.926;11.116;2022-07-25T03:29:46;7.47;;;2.10;;
49103;SDS011;34915;52.926;11.116;2022-07-25T03:32:11;1.40;;;1.30;;
49103;SDS011;34915;52.926;11.116;2022-07-25T03:34:37;2.33;;;1.50;;
49103;SDS011;34915;52.926;11.116;2022-07-25T03:37:03;1.73;;;1.33;;
49103;SDS011;34915;52.926;11.116;2022-07-25T03:39:28;3.70;;;1.83;;
49103;SDS011;34915;52.926;11.116;2022-07-25T03:41:54;1.70;;;1.57;;
49103;SDS011;34915;52.926;11.116;2022-07-25T03:44:20;1.43;;;1.33;;
49103;SDS011;34915;52.926;11.116;2022-07-25T03:46:47;1.60;;;1.50;;
49103;SDS011;34915;52.926;11.116;2022-07-25T03:49:12;3.97;;;1.63;;
49103;SDS011;34915;52.926;11.116;2022-07-25T03:51:38;1.50;;;1.40;;
49103;SDS011;34915;52.926;11.116;2022-07-25T03:54:04;1.67;;;1.20;;
49103;SDS011;34915;52.926;11.116;2022-07-25T03:56:40;1.40;;;1.27;;
49103;SDS011;34915;52.926;11.116;2022-07-25T03:59:06;1.43;;;1.33;;
49103;SDS011;34915;52.926;11.116;2022-07-25T04:01:33;2.10;;;1.60;;
49103;SDS011;34915;52.926;11.116;2022-07-25T04:03:59;1.97;;;1.10;;
49103;SDS011;34915;52.926;11.116;2022-07-25T04:06:26;2.07;;;1.60;;
49103;SDS011;34915;52.926;11.116;2022-07-25T04:08:53;4.70;;;1.70;;
49103;SDS011;34915;52.926;11.116;2022-07-25T04:11:20;1.60;;;1.50;;
49103;SDS011;34915;52.926;11.116;2022-07-25T04:13:46;1.57;;;1.47;;
49103;SDS011;34915;52.926;11.116;2022-07-25T04:16:12;1.63;;;1.27;;
49103;SDS011;34915;52.926;11.116;2022-07-25T04:18:38;1.20;;;1.10;;
49103;SDS011;34915;52.926;11.116;2022-07-25T04:21:04;1.40;;;1.30;;
49103;SDS011;34915;52.926;11.116;2022-07-25T04:23:31;1.10;;;1.00;;
49103;SDS011;34915;52.926;11.116;2022-07-25T04:25:57;1.83;;;1.13;;
49103;SDS011;34915;52.926;11.116;2022-07-25T04:28:23;1.37;;;1.23;;
49103;SDS011;34915;52.926;11.116;2022-07-25T04:30:49;4.07;;;1.67;;
49103;SDS011;34915;52.926;11.116;2022-07-25T04:33:15;1.40;;;1.30;;
49103;SDS011;34915;52.926;11.116;2022-07-25T04:35:42;2.03;;;1.73;;
49103;SDS011;34915;52.926;11.116;2022-07-25T04:38:07;1.83;;;1.53;;
49103;SDS011;34915;52.926;11.116;2022-07-25T04:40:33;1.43;;;1.33;;
49103;SDS011;34915;52.926;11.116;2022-07-25T04:42:59;0.90;;;0.90;;
49103;SDS011;34915;52.926;11.116;2022-07-25T04:45:25;1.20;;;1.10;;
49103;SDS011;34915;52.926;11.116;2022-07-25T04:47:53;1.17;;;1.07;;
49103;SDS011;34915;52.926;11.116;2022-07-25T04:50:18;2.27;;;1.20;;
49103;SDS011;34915;52.926;11.116;2022-07-25T04:52:44;1.13;;;1.00;;
49103;SDS011;34915;52.926;11.116;2022-07-25T04:55:09;1.37;;;1.00;;
49103;SDS011;34915;52.926;11.116;2022-07-25T04:57:35;1.20;;;1.10;;
49103;SDS011;34915;52.926;11.116;2022-07-25T05:00:02;10.13;;;5.67;;
49103;SDS011;34915;52.926;11.116;2022-07-25T05:02:29;8.33;;;6.63;;
49103;SDS011;34915;52.926;11.116;2022-07-25T05:04:54;3.97;;;3.53;;
49103;SDS011;34915;52.926;11.116;2022-07-25T05:07:20;2.50;;;2.10;;
49103;SDS011;34915;52.926;11.116;2022-07-25T05:09:46;3.33;;;2.30;;
49103;SDS011;34915;52.926;11.116;2022-07-25T05:12:12;2.73;;;2.17;;
49103;SDS011;34915;52.926;11.116;2022-07-25T05:14:37;1.97;;;1.77;;
49103;SDS011;34915;52.926;11.116;2022-07-25T05:17:03;2.80;;;2.10;;
49103;SDS011;34915;52.926;11.116;2022-07-25T05:19:29;2.00;;;1.80;;
49103;SDS011;34915;52.926;11.116;2022-07-25T05:21:54;2.60;;;2.07;;
49103;SDS011;34915;52.926;11.116;2022-07-25T05:24:20;3.57;;;2.10;;
49103;SDS011;34915;52.926;11.116;2022-07-25T05:26:47;2.00;;;1.80;;
49103;SDS011;34915;52.926;11.116;2022-07-25T05:29:13;2.17;;;1.97;;
49103;SDS011;34915;52.926;11.116;2022-07-25T05:31:42;2.50;;;2.30;;
49103;SDS011;34915;52.926;11.116;2022-07-25T05:34:07;2.40;;;2.20;;
49103;SDS011;34915;52.926;11.116;2022-07-25T05:36:33;3.87;;;1.90;;
49103;SDS011;34915;52.926;11.116;2022-07-25T05:38:59;3.23;;;2.40;;
49103;SDS011;34915;52.926;11.116;2022-07-25T05:41:25;3.07;;;2.03;;
49103;SDS011;34915;52.926;11.116;2022-07-25T05:43:51;2.20;;;2.00;;
49103;SDS011;34915;52.926;11.116;2022-07-25T05:46:17;1.93;;;1.83;;
49103;SDS011;34915;52.926;11.116;2022-07-25T05:48:43;3.60;;;2.07;;
49103;SDS011;34915;52.926;11.116;2022-07-25T05:51:09;3.20;;;2.50;;
49103;SDS011;34915;52.926;11.116;2022-07-25T05:53:34;2.10;;;2.00;;
49103;SDS011;34915;52.926;11.116;2022-07-25T05:56:00;2.03;;;1.93;;
49103;SDS011;34915;52.926;11.116;2022-07-25T05:58:26;2.53;;;2.23;;
49103;SDS011;34915;52.926;11.116;2022-07-25T06:00:51;3.90;;;2.10;;
49103;SDS011;34915;52.926;11.116;2022-07-25T06:03:17;4.10;;;2.40;;
49103;SDS011;34915;52.926;11.116;2022-07-25T06:05:44;2.20;;;2.00;;
49103;SDS011;34915;52.926;11.116;2022-07-25T06:08:13;3.27;;;2.00;;
49103;SDS011;34915;52.926;11.116;2022-07-25T06:10:39;2.33;;;2.13;;
49103;SDS011;34915;52.926;11.116;2022-07-25T06:13:05;2.40;;;2.20;;
49103;SDS011;34915;52.926;11.116;2022-07-25T06:15:31;3.83;;;2.43;;
49103;SDS011;34915;52.926;11.116;2022-07-25T06:17:57;2.47;;;2.00;;
49103;SDS011;34915;52.926;11.116;2022-07-25T06:20:22;2.73;;;2.53;;
49103;SDS011;34915;52.926;11.116;2022-07-25T06:22:48;3.70;;;2.17;;
49103;SDS011;34915;52.926;11.116;2022-07-25T06:25:14;5.20;;;2.63;;
49103;SDS011;34915;52.926;11.116;2022-07-25T06:27:40;3.57;;;2.67;;
49103;SDS011;34915;52.926;11.116;2022-07-25T06:30:06;3.33;;;2.33;;
49103;SDS011;34915;52.926;11.116;2022-07-25T06:32:33;3.40;;;2.37;;
49103;SDS011;34915;52.926;11.116;2022-07-25T06:34:59;2.60;;;2.40;;
49103;SDS011;34915;52.926;11.116;2022-07-25T06:37:25;4.03;;;2.50;;
49103;SDS011;34915;52.926;11.116;2022-07-25T06:39:51;2.90;;;2.57;;
49103;SDS011;34915;52.926;11.116;2022-07-25T06:42:16;4.60;;;2.77;;
49103;SDS011;34915;52.926;11.116;2022-07-25T06:44:42;5.00;;;2.97;;
49103;SDS011;34915;52.926;11.116;2022-07-25T06:47:08;4.30;;;2.80;;
49103;SDS011;34915;52.926;11.116;2022-07-25T06:49:42;2.90;;;2.70;;
49103;SDS011;34915;52.926;11.116;2022-07-25T06:52:10;4.93;;;2.90;;
49103;SDS011;34915;52.926;11.116;2022-07-25T06:54:36;4.40;;;3.03;;
49103;SDS011;34915;52.926;11.116;2022-07-25T06:57:01;2.83;;;2.60;;
49103;SDS011;34915;52.926;11.116;2022-07-25T06:59:27;2.83;;;2.63;;
49103;SDS011;34915;52.926;11.116;2022-07-25T07:01:53;3.13;;;2.87;;
49103;SDS011;34915;52.926;11.116;2022-07-25T07:04:18;4.33;;;3.00;;
49103;SDS011;34915;52.926;11.116;2022-07-25T07:06:44;3.50;;;3.20;;
49103;SDS011;34915;52.926;11.116;2022-07-25T07:09:09;3.17;;;2.87;;
49103;SDS011;34915;52.926;11.116;2022-07-25T07:11:35;3.10;;;2.83;;
49103;SDS011;34915;52.926;11.116;2022-07-25T07:14:03;4.40;;;3.13;;
49103;SDS011;34915;52.926;11.116;2022-07-25T07:16:29;3.20;;;2.87;;
49103;SDS011;34915;52.926;11.116;2022-07-25T07:18:55;4.03;;;3.20;;
49103;SDS011;34915;52.926;11.116;2022-07-25T07:21:21;3.90;;;3.27;;
49103;SDS011;34915;52.926;11.116;2022-07-25T07:23:47;3.37;;;3.07;;
49103;SDS011;34915;52.926;11.116;2022-07-25T07:26:13;3.43;;;3.13;;
49103;SDS011;34915;52.926;11.116;2022-07-25T07:28:39;3.70;;;3.40;;
49103;SDS011;34915;52.926;11.116;2022-07-25T07:31:04;4.47;;;3.33;;
49103;SDS011;34915;52.926;11.116;2022-07-25T07:33:30;5.50;;;3.83;;
49103;SDS011;34915;52.926;11.116;2022-07-25T07:36:00;3.47;;;3.27;;
49103;SDS011;34915;52.926;11.116;2022-07-25T07:38:26;3.73;;;3.37;;
49103;SDS011;34915;52.926;11.116;2022-07-25T07:40:52;4.63;;;3.20;;
49103;SDS011;34915;52.926;11.116;2022-07-25T07:43:18;4.10;;;3.60;;
49103;SDS011;34915;52.926;11.116;2022-07-25T07:45:44;4.60;;;3.60;;
49103;SDS011;34915;52.926;11.116;2022-07-25T07:48:10;3.53;;;3.23;;
49103;SDS011;34915;52.926;11.116;2022-07-25T07:50:36;3.73;;;3.23;;
49103;SDS011;34915;52.926;11.116;2022-07-25T07:53:04;3.50;;;3.20;;
49103;SDS011;34915;52.926;11.116;2022-07-25T07:55:30;5.53;;;3.57;;
49103;SDS011;34915;52.926;11.116;2022-07-25T07:58:09;3.73;;;3.43;;
49103;SDS011;34915;52.926;11.116;2022-07-25T08:00:42;3.20;;;3.00;;
49103;SDS011;34915;52.926;11.116;2022-07-25T08:03:09;4.47;;;3.23;;
49103;SDS011;34915;52.926;11.116;2022-07-25T08:05:36;4.20;;;3.83;;
49103;SDS011;34915;52.926;11.116;2022-07-25T08:08:07;154.93;;;9.00;;
49103;SDS011;34915;52.926;11.116;2022-07-25T08:10:34;5.47;;;2.20;;
49103;SDS011;34915;52.926;11.116;2022-07-25T08:13:03;2.73;;;2.37;;
49103;SDS011;34915;52.926;11.116;2022-07-25T08:15:40;2.30;;;1.87;;
49103;SDS011;34915;52.926;11.116;2022-07-25T08:18:06;12.20;;;3.27;;
49103;SDS011;34915;52.926;11.116;2022-07-25T08:20:31;2.70;;;2.50;;
49103;SDS011;34915;52.926;11.116;2022-07-25T08:22:57;2.73;;;2.53;;
49103;SDS011;34915;52.926;11.116;2022-07-25T08:25:22;3.17;;;2.87;;
49103;SDS011;34915;52.926;11.116;2022-07-25T08:27:51;2.97;;;2.77;;
49103;SDS011;34915;52.926;11.116;2022-07-25T08:30:17;4.40;;;4.00;;
49103;SDS011;34915;52.926;11.116;2022-07-25T08:32:50;4.63;;;4.10;;
49103;SDS011;34915;52.926;11.116;2022-07-25T08:35:18;4.57;;;3.63;;
49103;SDS011;34915;52.926;11.116;2022-07-25T08:37:45;4.53;;;4.13;;
49103;SDS011;34915;52.926;11.116;2022-07-25T08:40:12;5.53;;;4.50;;
49103;SDS011;34915;52.926;11.116;2022-07-25T08:42:39;4.47;;;3.97;;
49103;SDS011;34915;52.926;11.116;2022-07-25T08:45:06;6.53;;;4.47;;
49103;SDS011;34915;52.926;11.116;2022-07-25T08:47:33;5.60;;;4.20;;
49103;SDS011;34915;52.926;11.116;2022-07-25T08:50:01;23.17;;;6.83;;
49103;SDS011;34915;52.926;11.116;2022-07-25T08:52:29;6.23;;;4.40;;
49103;SDS011;34915;52.926;11.116;2022-07-25T08:54:59;4.70;;;4.30;;
49103;SDS011;34915;52.926;11.116;2022-07-25T08:57:26;7.17;;;4.20;;
49103;SDS011;34915;52.926;11.116;2022-07-25T08:59:55;4.57;;;4.17;;
49103;SDS011;34915;52.926;11.116;2022-07-25T09:02:22;5.03;;;4.60;;
49103;SDS011;34915;52.926;11.116;2022-07-25T09:04:47;4.83;;;4.43;;
49103;SDS011;34915;52.926;11.116;2022-07-25T09:07:13;5.20;;;4.70;;
49103;SDS011;34915;52.926;11.116;2022-07-25T09:09:38;7.53;;;4.73;;
49103;SDS011;34915;52.926;11.116;2022-07-25T09:12:04;7.80;;;5.40;;
49103;SDS011;34915;52.926;11.116;2022-07-25T09:14:41;5.00;;;4.60;;
49103;SDS011;34915;52.926;11.116;2022-07-25T09:17:07;5.43;;;4.93;;
49103;SDS011;34915;52.926;11.116;2022-07-25T09:19:36;5.30;;;4.90;;
49103;SDS011;34915;52.926;11.116;2022-07-25T09:22:05;5.73;;;5.23;;
49103;SDS011;34915;52.926;11.116;2022-07-25T09:24:32;5.30;;;4.80;;
49103;SDS011;34915;52.926;11.116;2022-07-25T09:26:59;5.43;;;4.37;;
49103;SDS011;34915;52.926;11.116;2022-07-25T09:29:32;5.37;;;4.87;;
49103;SDS011;34915;52.926;11.116;2022-07-25T09:31:59;5.87;;;5.00;;
49103;SDS011;34915;52.926;11.116;2022-07-25T09:34:38;5.03;;;4.60;;
49103;SDS011;34915;52.926;11.116;2022-07-25T09:37:07;5.63;;;4.90;;
49103;SDS011;34915;52.926;11.116;2022-07-25T09:39:49;5.33;;;4.83;;
49103;SDS011;34915;52.926;11.116;2022-07-25T09:42:36;7.97;;;4.87;;
49103;SDS011;34915;52.926;11.116;2022-07-25T09:47:52;5.73;;;4.70;;
49103;SDS011;34915;52.926;11.116;2022-07-25T09:50:28;6.97;;;5.30;;
49103;SDS011;34915;52.926;11.116;2022-07-25T09:52:56;7.17;;;4.93;;
49103;SDS011;34915;52.926;11.116;2022-07-25T09:55:24;5.47;;;4.47;;
49103;SDS011;34915;52.926;11.116;2022-07-25T09:57:50;5.57;;;5.07;;
49103;SDS011;34915;52.926;11.116;2022-07-25T10:00:20;5.23;;;4.73;;
49103;SDS011;34915;52.926;11.116;2022-07-25T10:07:48;5.30;;;4.90;;
49103;SDS011;34915;52.926;11.116;2022-07-25T10:10:31;5.73;;;5.20;;
49103;SDS011;34915;52.926;11.116;2022-07-25T10:15:38;6.77;;;4.03;;
49103;SDS011;34915;52.926;11.116;2022-07-25T10:18:04;5.03;;;4.53;;
49103;SDS011;34915;52.926;11.116;2022-07-25T10:20:32;5.37;;;4.53;;
49103;SDS011;34915;52.926;11.116;2022-07-25T10:22:59;5.30;;;4.10;;
49103;SDS011;34915;52.926;11.116;2022-07-25T10:25:26;5.23;;;4.73;;
49103;SDS011;34915;52.926;11.116;2022-07-25T10:27:57;5.37;;;4.87;;
49103;SDS011;34915;52.926;11.116;2022-07-25T10:30:37;5.30;;;4.80;;
49103;SDS011;34915;52.926;11.116;2022-07-25T10:33:09;4.80;;;4.40;;
49103;SDS011;34915;52.926;11.116;2022-07-25T10:35:42;5.07;;;4.57;;
49103;SDS011;34915;52.926;11.116;2022-07-25T10:38:10;6.20;;;4.70;;
49103;SDS011;34915;52.926;11.116;2022-07-25T10:40:36;5.30;;;4.80;;
49103;SDS011;34915;52.926;11.116;2022-07-25T10:45:39;5.33;;;4.83;;
49103;SDS011;34915;52.926;11.116;2022-07-25T10:48:26;5.33;;;4.87;;
49103;SDS011;34915;52.926;11.116;2022-07-25T10:50:58;5.33;;;4.43;;
49103;SDS011;34915;52.926;11.116;2022-07-25T10:56:11;5.73;;;5.03;;
49103;SDS011;34915;52.926;11.116;2022-07-25T11:01:11;5.30;;;4.83;;
49103;SDS011;34915;52.926;11.116;2022-07-25T11:03:39;5.90;;;5.40;;
49103;SDS011;34915;52.926;11.116;2022-07-25T11:06:06;5.57;;;5.10;;
49103;SDS011;34915;52.926;11.116;2022-07-25T11:08:32;5.37;;;4.87;;
49103;SDS011;34915;52.926;11.116;2022-07-25T11:11:00;4.83;;;4.37;;
49103;SDS011;34915;52.926;11.116;2022-07-25T11:13:26;7.90;;;4.97;;
49103;SDS011;34915;52.926;11.116;2022-07-25T11:15:55;5.17;;;4.77;;
49103;SDS011;34915;52.926;11.116;2022-07-25T11:18:32;6.87;;;4.90;;
49103;SDS011;34915;52.926;11.116;2022-07-25T11:20:59;5.17;;;4.73;;
49103;SDS011;34915;52.926;11.116;2022-07-25T11:23:26;5.43;;;4.97;;
49103;SDS011;34915;52.926;11.116;2022-07-25T11:26:02;5.27;;;4.87;;
49103;SDS011;34915;52.926;11.116;2022-07-25T11:31:06;5.13;;;4.73;;
49103;SDS011;34915;52.926;11.116;2022-07-25T11:33:32;5.47;;;4.97;;
49103;SDS011;34915;52.926;11.116;2022-07-25T11:35:58;5.97;;;5.13;;
49103;SDS011;34915;52.926;11.116;2022-07-25T11:38:27;5.20;;;4.80;;
49103;SDS011;34915;52.926;11.116;2022-07-25T11:40:53;5.40;;;4.80;;
49103;SDS011;34915;52.926;11.116;2022-07-25T11:43:19;6.27;;;4.60;;
49103;SDS011;34915;52.926;11.116;2022-07-25T11:45:54;5.40;;;4.90;;
49103;SDS011;34915;52.926;11.116;2022-07-25T11:48:34;5.50;;;5.10;;
49103;SDS011;34915;52.926;11.116;2022-07-25T11:51:08;6.50;;;5.10;;
49103;SDS011;34915;52.926;11.116;2022-07-25T11:53:53;5.23;;;4.83;;
49103;SDS011;34915;52.926;11.116;2022-07-25T11:56:20;6.77;;;4.97;;
49103;SDS011;34915;52.926;11.116;2022-07-25T11:58:57;5.63;;;5.07;;
49103;SDS011;34915;52.926;11.116;2022-07-25T12:01:23;5.37;;;4.97;;
49103;SDS011;34915;52.926;11.116;2022-07-25T12:03:50;5.23;;;4.77;;
49103;SDS011;34915;52.926;11.116;2022-07-25T12:06:16;5.50;;;5.10;;
49103;SDS011;34915;52.926;11.116;2022-07-25T12:08:42;5.83;;;5.23;;
49103;SDS011;34915;52.926;11.116;2022-07-25T12:11:20;9.73;;;5.67;;
49103;SDS011;34915;52.926;11.116;2022-07-25T12:13:48;5.90;;;5.33;;
49103;SDS011;34915;52.926;11.116;2022-07-25T12:16:14;8.03;;;5.40;;
49103;SDS011;34915;52.926;11.116;2022-07-25T12:18:41;5.17;;;4.77;;
49103;SDS011;34915;52.926;11.116;2022-07-25T12:21:07;7.27;;;5.30;;
49103;SDS011;34915;52.926;11.116;2022-07-25T12:23:32;5.77;;;5.27;;
49103;SDS011;34915;52.926;11.116;2022-07-25T12:25:58;5.80;;;5.13;;
49103;SDS011;34915;52.926;11.116;2022-07-25T12:28:24;5.83;;;5.33;;
49103;SDS011;34915;52.926;11.116;2022-07-25T12:30:50;5.77;;;5.17;;
49103;SDS011;34915;52.926;11.116;2022-07-25T12:33:16;4.80;;;4.20;;
49103;SDS011;34915;52.926;11.116;2022-07-25T12:35:42;5.87;;;5.37;;
49103;SDS011;34915;52.926;11.116;2022-07-25T12:38:09;5.07;;;4.67;;
49103;SDS011;34915;52.926;11.116;2022-07-25T12:40:35;6.00;;;5.47;;
49103;SDS011;34915;52.926;11.116;2022-07-25T12:43:01;5.60;;;4.93;;
49103;SDS011;34915;52.926;11.116;2022-07-25T12:45:28;6.43;;;4.80;;
49103;SDS011;34915;52.926;11.116;2022-07-25T12:47:53;4.70;;;4.30;;
49103;SDS011;34915;52.926;11.116;2022-07-25T12:50:20;4.57;;;4.17;;
49103;SDS011;34915;52.926;11.116;2022-07-25T12:52:46;5.00;;;4.30;;
49103;SDS011;34915;52.926;11.116;2022-07-25T12:55:13;5.97;;;4.30;;
49103;SDS011;34915;52.926;11.116;2022-07-25T12:57:41;4.87;;;4.37;;
49103;SDS011;34915;52.926;11.116;2022-07-25T13:00:11;5.37;;;4.30;;
49103;SDS011;34915;52.926;11.116;2022-07-25T13:02:38;4.50;;;4.10;;
49103;SDS011;34915;52.926;11.116;2022-07-25T13:05:04;4.70;;;4.30;;
49103;SDS011;34915;52.926;11.116;2022-07-25T13:07:31;4.30;;;3.90;;
49103;SDS011;34915;52.926;11.116;2022-07-25T13:09:58;4.50;;;4.20;;
49103;SDS011;34915;52.926;11.116;2022-07-25T13:12:24;4.60;;;4.17;;
49103;SDS011;34915;52.926;11.116;2022-07-25T13:14:49;4.40;;;4.00;;
49103;SDS011;34915;52.926;11.116;2022-07-25T13:17:15;4.63;;;4.20;;
49103;SDS011;34915;52.926;11.116;2022-07-25T13:19:41;5.37;;;4.63;;
49103;SDS011;34915;52.926;11.116;2022-07-25T13:22:07;4.83;;;4.43;;
49103;SDS011;34915;52.926;11.116;2022-07-25T13:24:32;5.17;;;4.13;;
49103;SDS011;34915;52.926;11.116;2022-07-25T13:27:02;5.10;;;4.70;;
49103;SDS011;34915;52.926;11.116;2022-07-25T13:29:28;5.23;;;4.80;;
49103;SDS011;34915;52.926;11.116;2022-07-25T13:31:54;5.47;;;4.97;;
49103;SDS011;34915;52.926;11.116;2022-07-25T13:34:20;5.40;;;4.90;;
49103;SDS011;34915;52.926;11.116;2022-07-25T13:36:45;5.43;;;4.93;;
49103;SDS011;34915;52.926;11.116;2022-07-25T13:39:12;5.00;;;4.57;;
49103;SDS011;34915;52.926;11.116;2022-07-25T13:41:37;6.20;;;4.90;;
49103;SDS011;34915;52.926;11.116;2022-07-25T13:44:03;5.57;;;4.97;;
49103;SDS011;34915;52.926;11.116;2022-07-25T13:46:29;6.13;;;5.43;;
49103;SDS011;34915;52.926;11.116;2022-07-25T13:48:56;6.40;;;5.80;;
49103;SDS011;34915;52.926;11.116;2022-07-25T13:51:21;5.50;;;5.10;;
49103;SDS011;34915;52.926;11.116;2022-07-25T13:53:47;5.67;;;5.17;;
49103;SDS011;34915;52.926;11.116;2022-07-25T13:56:12;5.67;;;5.17;;
49103;SDS011;34915;52.926;11.116;2022-07-25T13:58:38;7.50;;;5.10;;
49103;SDS011;34915;52.926;11.116;2022-07-25T14:01:05;5.53;;;4.80;;
49103;SDS011;34915;52.926;11.116;2022-07-25T14:03:32;5.30;;;4.90;;
49103;SDS011;34915;52.926;11.116;2022-07-25T14:05:58;6.33;;;4.97;;
49103;SDS011;34915;52.926;11.116;2022-07-25T14:08:26;5.20;;;4.70;;
49103;SDS011;34915;52.926;11.116;2022-07-25T14:10:54;4.57;;;4.17;;
49103;SDS011;34915;52.926;11.116;2022-07-25T14:13:19;4.90;;;4.50;;
49103;SDS011;34915;52.926;11.116;2022-07-25T14:15:45;5.07;;;4.67;;
49103;SDS011;34915;52.926;11.116;2022-07-25T14:18:11;6.20;;;5.07;;
49103;SDS011;34915;52.926;11.116;2022-07-25T14:20:37;5.50;;;5.00;;
49103;SDS011;34915;52.926;11.116;2022-07-25T14:23:02;5.57;;;5.17;;
49103;SDS011;34915;52.926;11.116;2022-07-25T14:25:28;5.50;;;5.00;;
49103;SDS011;34915;52.926;11.116;2022-07-25T14:27:53;5.90;;;5.13;;
49103;SDS011;34915;52.926;11.116;2022-07-25T14:30:19;5.23;;;4.73;;
49103;SDS011;34915;52.926;11.116;2022-07-25T14:32:45;6.50;;;4.80;;
49103;SDS011;34915;52.926;11.116;2022-07-25T14:35:11;6.03;;;4.97;;
49103;SDS011;34915;52.926;11.116;2022-07-25T14:37:37;5.90;;;5.40;;
49103;SDS011;34915;52.926;11.116;2022-07-25T14:40:03;5.40;;;4.87;;
49103;SDS011;34915;52.926;11.116;2022-07-25T14:42:30;6.07;;;5.13;;
49103;SDS011;34915;52.926;11.116;2022-07-25T14:44:55;5.97;;;5.30;;
49103;SDS011;34915;52.926;11.116;2022-07-25T14:47:21;7.03;;;5.20;;
49103;SDS011;34915;52.926;11.116;2022-07-25T14:49:47;5.70;;;5.30;;
49103;SDS011;34915;52.926;11.116;2022-07-25T14:52:12;5.87;;;5.37;;